sensor_id;sensor_type;location;lat;lon;timestamp;pressure;altitude;pressure_sealevel;temperature;humidity
23446;BME280;11895;48.738;9.320;2023-04-08T00:02:11;99026.13;;;11.20;100.00
23446;BME280;11895;48.738;9.320;2023-04-08T00:04:38;99031.66;;;11.17;100.00
23446;BME280;11895;48.738;9.320;2023-04-08T00:07:06;99030.97;;;11.12;100.00
23446;BME280;11895;48.738;9.320;2023-04-08T00:09:33;99036.06;;;10.99;100.00
23446;BME280;11895;48.738;9.320;2023-04-08T00:12:01;99033.16;;;11.03;100.00
23446;BME280;11895;48.738;9.320;2023-04-08T00:14:28;99034.72;;;11.09;100.00
23446;BME280;11895;48.738;9.320;2023-04-08T00:16:55;99034.25;;;10.99;100.00
23446;BME280;11895;48.738;9.320;2023-04-08T00:19:22;99034.38;;;10.96;100.00
23446;BME280;11895;48.738;9.320;2023-04-08T00:21:49;99041.00;;;10.89;100.00
23446;BME280;11895;48.738;9.320;2023-04-08T00:24:17;99030.88;;;10.94;100.00
23446;BME280;11895;48.738;9.320;2023-04-08T00:26:45;99030.72;;;10.97;100.00
23446;BME280;11895;48.738;9.320;2023-04-08T00:29:13;99021.97;;;10.92;100.00
23446;BME280;11895;48.738;9.320;2023-04-08T00:31:40;99025.78;;;10.88;100.00
23446;BME280;11895;48.738;9.320;2023-04-08T00:34:07;99034.59;;;10.71;100.00
23446;BME280;11895;48.738;9.320;2023-04-08T00:36:34;99032.72;;;10.73;100.00
23446;BME280;11895;48.738;9.320;2023-04-08T00:39:02;99033.44;;;10.77;100.00
23446;BME280;11895;48.738;9.320;2023-04-08T00:41:33;99035.25;;;10.76;100.00
23446;BME280;11895;48.738;9.320;2023-04-08T00:44:01;99043.69;;;10.69;100.00
23446;BME280;11895;48.738;9.320;2023-04-08T00:46:30;99034.38;;;10.76;100.00
23446;BME280;11895;48.738;9.320;2023-04-08T00:48:59;99046.03;;;10.76;100.00
23446;BME280;11895;48.738;9.320;2023-04-08T00:51:28;99056.72;;;10.78;100.00
23446;BME280;11895;48.738;9.320;2023-04-08T00:53:57;99041.47;;;10.78;100.00
23446;BME280;11895;48.738;9.320;2023-04-08T00:56:26;99048.53;;;10.81;100.00
23446;BME280;11895;48.738;9.320;2023-04-08T00:58:54;99054.47;;;10.69;100.00
23446;BME280;11895;48.738;9.320;2023-04-08T01:04:28;99054.97;;;10.57;100.00
23446;BME280;11895;48.738;9.320;2023-04-08T01:07:26;99054.31;;;10.51;100.00
23446;BME280;11895;48.738;9.320;2023-04-08T01:10:01;99052.41;;;10.53;100.00
23446;BME280;11895;48.738;9.320;2023-04-08T01:12:36;99052.28;;;10.57;100.00
23446;BME280;11895;48.738;9.320;2023-04-08T01:15:10;99051.78;;;10.69;100.00
23446;BME280;11895;48.738;9.320;2023-04-08T01:17:40;99056.06;;;10.73;100.00
23446;BME280;11895;48.738;9.320;2023-04-08T01:20:12;99054.59;;;10.66;100.00
23446;BME280;11895;48.738;9.320;2023-04-08T01:25:26;99062.19;;;10.76;100.00
23446;BME280;11895;48.738;9.320;2023-04-08T01:28:06;99056.25;;;10.68;100.00
23446;BME280;11895;48.738;9.320;2023-04-08T01:30:41;99057.56;;;10.60;100.00
23446;BME280;11895;48.738;9.320;2023-04-08T01:33:13;99060.53;;;10.74;100.00
23446;BME280;11895;48.738;9.320;2023-04-08T01:35:43;99056.50;;;10.84;100.00
23446;BME280;11895;48.738;9.320;2023-04-08T01:38:17;99054.78;;;10.81;100.00
23446;BME280;11895;48.738;9.320;2023-04-08T01:40:48;99055.38;;;10.68;100.00
23446;BME280;11895;48.738;9.320;2023-04-08T01:43:18;99056.00;;;10.74;100.00
23446;BME280;11895;48.738;9.320;2023-04-08T01:45:51;99050.38;;;10.59;100.00
23446;BME280;11895;48.738;9.320;2023-04-08T01:48:27;99044.88;;;10.62;100.00
23446;BME280;11895;48.738;9.320;2023-04-08T01:50:56;99055.47;;;10.66;100.00
23446;BME280;11895;48.738;9.320;2023-04-08T01:53:24;99042.53;;;10.74;100.00
23446;BME280;11895;48.738;9.320;2023-04-08T01:56:03;99045.09;;;10.77;100.00
23446;BME280;11895;48.738;9.320;2023-04-08T01:58:42;99053.31;;;10.74;100.00
23446;BME280;11895;48.738;9.320;2023-04-08T02:01:17;99051.22;;;10.61;100.00
23446;BME280;11895;48.738;9.320;2023-04-08T02:03:55;99049.19;;;10.66;100.00
23446;BME280;11895;48.738;9.320;2023-04-08T02:06:26;99045.25;;;10.74;100.00
23446;BME280;11895;48.738;9.320;2023-04-08T02:09:20;99044.69;;;10.87;100.00
23446;BME280;11895;48.738;9.320;2023-04-08T02:11:47;99050.28;;;10.82;100.00
23446;BME280;11895;48.738;9.320;2023-04-08T02:14:14;99051.50;;;10.75;100.00
23446;BME280;11895;48.738;9.320;2023-04-08T02:16:49;99055.00;;;10.77;100.00
23446;BME280;11895;48.738;9.320;2023-04-08T02:19:28;99056.72;;;10.78;100.00
23446;BME280;11895;48.738;9.320;2023-04-08T02:22:17;99045.06;;;10.57;100.00
23446;BME280;11895;48.738;9.320;2023-04-08T02:24:50;99044.59;;;10.68;100.00
23446;BME280;11895;48.738;9.320;2023-04-08T02:27:19;99054.03;;;10.58;100.00
23446;BME280;11895;48.738;9.320;2023-04-08T02:29:49;99054.81;;;10.39;100.00
23446;BME280;11895;48.738;9.320;2023-04-08T02:32:17;99053.09;;;10.15;100.00
23446;BME280;11895;48.738;9.320;2023-04-08T02:34:46;99054.31;;;10.08;100.00
23446;BME280;11895;48.738;9.320;2023-04-08T02:37:15;99057.41;;;10.19;100.00
23446;BME280;11895;48.738;9.320;2023-04-08T02:39:42;99051.56;;;10.31;100.00
23446;BME280;11895;48.738;9.320;2023-04-08T02:42:10;99055.34;;;10.27;100.00
23446;BME280;11895;48.738;9.320;2023-04-08T02:44:38;99056.00;;;10.32;100.00
23446;BME280;11895;48.738;9.320;2023-04-08T02:47:05;99046.31;;;10.28;100.00
23446;BME280;11895;48.738;9.320;2023-04-08T02:49:35;99054.50;;;10.25;100.00
23446;BME280;11895;48.738;9.320;2023-04-08T02:52:03;99053.94;;;10.39;100.00
23446;BME280;11895;48.738;9.320;2023-04-08T02:54:30;99057.50;;;10.39;100.00
23446;BME280;11895;48.738;9.320;2023-04-08T02:56:58;99056.63;;;10.39;100.00
23446;BME280;11895;48.738;9.320;2023-04-08T02:59:26;99057.50;;;10.39;100.00
23446;BME280;11895;48.738;9.320;2023-04-08T03:01:54;99047.94;;;10.32;100.00
23446;BME280;11895;48.738;9.320;2023-04-08T03:04:22;99055.34;;;10.27;100.00
23446;BME280;11895;48.738;9.320;2023-04-08T03:06:50;99058.63;;;10.34;100.00
23446;BME280;11895;48.738;9.320;2023-04-08T03:09:18;99054.75;;;10.41;100.00
23446;BME280;11895;48.738;9.320;2023-04-08T03:11:45;99060.38;;;10.13;100.00
23446;BME280;11895;48.738;9.320;2023-04-08T03:14:19;99057.69;;;10.13;100.00
23446;BME280;11895;48.738;9.320;2023-04-08T03:16:47;99057.41;;;10.19;100.00
23446;BME280;11895;48.738;9.320;2023-04-08T03:19:14;99058.78;;;10.31;100.00
23446;BME280;11895;48.738;9.320;2023-04-08T03:21:42;99060.72;;;10.27;100.00
23446;BME280;11895;48.738;9.320;2023-04-08T03:24:10;99062.97;;;10.38;100.00
23446;BME280;11895;48.738;9.320;2023-04-08T03:26:37;99059.78;;;10.28;100.00
23446;BME280;11895;48.738;9.320;2023-04-08T03:29:04;99067.78;;;10.29;100.00
23446;BME280;11895;48.738;9.320;2023-04-08T03:31:33;99069.09;;;10.41;100.00
23446;BME280;11895;48.738;9.320;2023-04-08T03:34:00;99070.56;;;10.48;100.00
23446;BME280;11895;48.738;9.320;2023-04-08T03:36:27;99067.69;;;10.53;100.00
23446;BME280;11895;48.738;9.320;2023-04-08T03:38:55;99075.06;;;10.49;100.00
23446;BME280;11895;48.738;9.320;2023-04-08T03:41:22;99073.03;;;10.54;100.00
23446;BME280;11895;48.738;9.320;2023-04-08T03:43:50;99068.56;;;10.53;100.00
23446;BME280;11895;48.738;9.320;2023-04-08T03:46:17;99076.41;;;10.60;100.00
23446;BME280;11895;48.738;9.320;2023-04-08T03:48:44;99074.84;;;10.54;100.00
23446;BME280;11895;48.738;9.320;2023-04-08T03:51:12;99071.06;;;10.58;100.00
23446;BME280;11895;48.738;9.320;2023-04-08T03:53:39;99067.66;;;10.54;100.00
23446;BME280;11895;48.738;9.320;2023-04-08T03:56:07;99065.94;;;10.52;100.00
23446;BME280;11895;48.738;9.320;2023-04-08T03:58:34;99065.19;;;10.48;100.00
23446;BME280;11895;48.738;9.320;2023-04-08T04:01:02;99072.22;;;10.52;100.00
23446;BME280;11895;48.738;9.320;2023-04-08T04:03:30;99063.59;;;10.44;100.00
23446;BME280;11895;48.738;9.320;2023-04-08T04:05:58;99067.97;;;10.47;100.00
23446;BME280;11895;48.738;9.320;2023-04-08T04:08:26;99063.63;;;10.43;100.00
23446;BME280;11895;48.738;9.320;2023-04-08T04:10:53;99060.19;;;10.39;100.00
23446;BME280;11895;48.738;9.320;2023-04-08T04:13:20;99064.84;;;10.36;100.00
23446;BME280;11895;48.738;9.320;2023-04-08T04:15:48;99063.72;;;10.41;100.00
23446;BME280;11895;48.738;9.320;2023-04-08T04:18:15;99069.28;;;10.37;100.00
23446;BME280;11895;48.738;9.320;2023-04-08T04:20:43;99066.66;;;10.35;100.00
23446;BME280;11895;48.738;9.320;2023-04-08T04:23:10;99070.34;;;10.11;100.00
23446;BME280;11895;48.738;9.320;2023-04-08T04:25:41;99066.50;;;10.16;100.00
23446;BME280;11895;48.738;9.320;2023-04-08T04:28:08;99076.06;;;10.23;100.00
23446;BME280;11895;48.738;9.320;2023-04-08T04:30:38;99075.31;;;10.20;100.00
23446;BME280;11895;48.738;9.320;2023-04-08T04:33:06;99084.34;;;10.19;100.00
23446;BME280;11895;48.738;9.320;2023-04-08T04:35:34;99084.47;;;10.16;100.00
23446;BME280;11895;48.738;9.320;2023-04-08T04:38:02;99081.66;;;10.19;100.00
23446;BME280;11895;48.738;9.320;2023-04-08T04:40:29;99081.41;;;10.25;100.00
23446;BME280;11895;48.738;9.320;2023-04-08T04:42:56;99084.13;;;10.25;100.00
23446;BME280;11895;48.738;9.320;2023-04-08T04:45:23;99071.47;;;10.27;100.00
23446;BME280;11895;48.738;9.320;2023-04-08T04:47:51;99080.00;;;10.15;100.00
23446;BME280;11895;48.738;9.320;2023-04-08T04:50:19;99081.19;;;10.31;100.00
23446;BME280;11895;48.738;9.320;2023-04-08T04:52:47;99082.13;;;10.30;100.00
23446;BME280;11895;48.738;9.320;2023-04-08T04:55:14;99085.72;;;10.31;100.00
23446;BME280;11895;48.738;9.320;2023-04-08T04:57:42;99091.34;;;10.23;100.00
23446;BME280;11895;48.738;9.320;2023-04-08T05:00:11;99099.22;;;10.29;100.00
23446;BME280;11895;48.738;9.320;2023-04-08T05:02:38;99096.66;;;10.26;100.00
23446;BME280;11895;48.738;9.320;2023-04-08T05:05:08;99093.03;;;10.27;100.00
23446;BME280;11895;48.738;9.320;2023-04-08T05:07:37;99100.03;;;10.31;100.00
23446;BME280;11895;48.738;9.320;2023-04-08T05:10:05;99107.94;;;10.36;100.00
23446;BME280;11895;48.738;9.320;2023-04-08T05:12:33;99107.97;;;10.34;100.00
23446;BME280;11895;48.738;9.320;2023-04-08T05:15:00;99107.25;;;10.31;100.00
23446;BME280;11895;48.738;9.320;2023-04-08T05:17:28;99107.16;;;10.32;100.00
23446;BME280;11895;48.738;9.320;2023-04-08T05:19:55;99106.13;;;10.36;100.00
23446;BME280;11895;48.738;9.320;2023-04-08T05:22:23;99107.09;;;10.34;100.00
23446;BME280;11895;48.738;9.320;2023-04-08T05:24:50;99108.03;;;10.33;100.00
23446;BME280;11895;48.738;9.320;2023-04-08T05:27:17;99112.66;;;10.29;100.00
23446;BME280;11895;48.738;9.320;2023-04-08T05:29:44;99112.97;;;10.43;100.00
23446;BME280;11895;48.738;9.320;2023-04-08T05:32:12;99115.50;;;10.26;100.00
23446;BME280;11895;48.738;9.320;2023-04-08T05:34:39;99117.75;;;10.37;100.00
23446;BME280;11895;48.738;9.320;2023-04-08T05:37:07;99121.22;;;10.40;100.00
23446;BME280;11895;48.738;9.320;2023-04-08T05:39:34;99122.00;;;10.42;100.00
23446;BME280;11895;48.738;9.320;2023-04-08T05:42:02;99124.78;;;10.41;100.00
23446;BME280;11895;48.738;9.320;2023-04-08T05:44:29;99122.00;;;10.42;100.00
23446;BME280;11895;48.738;9.320;2023-04-08T05:46:57;99124.97;;;10.36;100.00
23446;BME280;11895;48.738;9.320;2023-04-08T05:49:25;99124.34;;;10.51;100.00
23446;BME280;11895;48.738;9.320;2023-04-08T05:51:53;99124.81;;;10.61;100.00
23446;BME280;11895;48.738;9.320;2023-04-08T05:54:20;99128.09;;;10.69;100.00
23446;BME280;11895;48.738;9.320;2023-04-08T05:56:48;99127.94;;;10.72;100.00
23446;BME280;11895;48.738;9.320;2023-04-08T05:59:16;99133.13;;;10.77;100.00
23446;BME280;11895;48.738;9.320;2023-04-08T06:01:43;99144.84;;;10.76;100.00
23446;BME280;11895;48.738;9.320;2023-04-08T06:04:12;99146.22;;;10.86;100.00
23446;BME280;11895;48.738;9.320;2023-04-08T06:07:05;99141.22;;;10.77;100.00
23446;BME280;11895;48.738;9.320;2023-04-08T06:09:35;99159.63;;;10.88;100.00
23446;BME280;11895;48.738;9.320;2023-04-08T06:12:03;99147.25;;;10.62;100.00
23446;BME280;11895;48.738;9.320;2023-04-08T06:14:31;99154.16;;;10.69;100.00
23446;BME280;11895;48.738;9.320;2023-04-08T06:16:58;99154.66;;;10.57;100.00
23446;BME280;11895;48.738;9.320;2023-04-08T06:19:25;99155.97;;;10.46;100.00
23446;BME280;11895;48.738;9.320;2023-04-08T06:21:53;99157.22;;;10.60;100.00
23446;BME280;11895;48.738;9.320;2023-04-08T06:24:25;99161.81;;;10.78;100.00
23446;BME280;11895;48.738;9.320;2023-04-08T06:26:53;99166.16;;;10.82;100.00
23446;BME280;11895;48.738;9.320;2023-04-08T06:29:22;99164.13;;;10.87;100.00
23446;BME280;11895;48.738;9.320;2023-04-08T06:31:49;99157.97;;;11.05;100.00
23446;BME280;11895;48.738;9.320;2023-04-08T06:34:17;99162.38;;;11.08;100.00
23446;BME280;11895;48.738;9.320;2023-04-08T06:36:44;99162.00;;;11.16;100.00
23446;BME280;11895;48.738;9.320;2023-04-08T06:39:12;99163.13;;;11.32;100.00
23446;BME280;11895;48.738;9.320;2023-04-08T06:41:40;99163.63;;;11.40;100.00
23446;BME280;11895;48.738;9.320;2023-04-08T06:44:22;99164.97;;;11.50;100.00
23446;BME280;11895;48.738;9.320;2023-04-08T06:46:50;99173.22;;;11.27;100.00
23446;BME280;11895;48.738;9.320;2023-04-08T06:49:19;99170.81;;;11.41;100.00
23446;BME280;11895;48.738;9.320;2023-04-08T06:51:48;99173.59;;;11.58;100.00
23446;BME280;11895;48.738;9.320;2023-04-08T06:54:15;99174.56;;;11.57;100.00
23446;BME280;11895;48.738;9.320;2023-04-08T06:56:42;99184.81;;;11.29;100.00
23446;BME280;11895;48.738;9.320;2023-04-08T06:59:12;99187.63;;;11.26;100.00
23446;BME280;11895;48.738;9.320;2023-04-08T07:01:39;99185.88;;;11.25;100.00
23446;BME280;11895;48.738;9.320;2023-04-08T07:04:08;99183.88;;;11.30;100.00
23446;BME280;11895;48.738;9.320;2023-04-08T07:06:35;99185.38;;;11.37;100.00
23446;BME280;11895;48.738;9.320;2023-04-08T07:09:03;99184.69;;;11.32;100.00
23446;BME280;11895;48.738;9.320;2023-04-08T07:11:31;99179.03;;;11.18;100.00
23446;BME280;11895;48.738;9.320;2023-04-08T07:13:58;99192.91;;;11.49;100.00
23446;BME280;11895;48.738;9.320;2023-04-08T07:16:26;99185.81;;;11.67;100.00
23446;BME280;11895;48.738;9.320;2023-04-08T07:18:53;99183.03;;;11.69;100.00
23446;BME280;11895;48.738;9.320;2023-04-08T07:21:20;99189.47;;;11.87;100.00
23446;BME280;11895;48.738;9.320;2023-04-08T07:23:48;99185.84;;;12.06;100.00
23446;BME280;11895;48.738;9.320;2023-04-08T07:26:15;99189.94;;;12.34;100.00
23446;BME280;11895;48.738;9.320;2023-04-08T07:28:42;99191.41;;;12.41;100.00
23446;BME280;11895;48.738;9.320;2023-04-08T07:31:17;99195.34;;;12.72;100.00
23446;BME280;11895;48.738;9.320;2023-04-08T07:33:45;99189.31;;;12.84;100.00
23446;BME280;11895;48.738;9.320;2023-04-08T07:36:13;99192.19;;;12.98;100.00
23446;BME280;11895;48.738;9.320;2023-04-08T07:38:41;99185.44;;;13.07;100.00
23446;BME280;11895;48.738;9.320;2023-04-08T07:41:09;99190.09;;;12.86;100.00
23446;BME280;11895;48.738;9.320;2023-04-08T07:43:36;99198.13;;;13.24;100.00
23446;BME280;11895;48.738;9.320;2023-04-08T07:46:05;99202.69;;;13.41;100.00
23446;BME280;11895;48.738;9.320;2023-04-08T07:48:34;99210.25;;;13.69;100.00
23446;BME280;11895;48.738;9.320;2023-04-08T07:51:06;99196.00;;;13.98;100.00
23446;BME280;11895;48.738;9.320;2023-04-08T07:53:38;99203.66;;;13.90;100.00
23446;BME280;11895;48.738;9.320;2023-04-08T07:56:14;99197.97;;;13.79;100.00
23446;BME280;11895;48.738;9.320;2023-04-08T07:58:42;99197.97;;;14.12;100.00
23446;BME280;11895;48.738;9.320;2023-04-08T08:01:21;99197.28;;;14.40;100.00
23446;BME280;11895;48.738;9.320;2023-04-08T08:03:52;99194.19;;;14.63;100.00
23446;BME280;11895;48.738;9.320;2023-04-08T08:06:21;99200.59;;;14.62;100.00
23446;BME280;11895;48.738;9.320;2023-04-08T08:08:49;99198.22;;;14.56;100.00
23446;BME280;11895;48.738;9.320;2023-04-08T08:11:17;99211.06;;;14.20;100.00
23446;BME280;11895;48.738;9.320;2023-04-08T08:13:44;99210.34;;;14.00;100.00
23446;BME280;11895;48.738;9.320;2023-04-08T08:16:11;99208.31;;;13.88;100.00
23446;BME280;11895;48.738;9.320;2023-04-08T08:18:39;99208.25;;;14.05;100.00
23446;BME280;11895;48.738;9.320;2023-04-08T08:21:08;99214.50;;;13.73;100.00
23446;BME280;11895;48.738;9.320;2023-04-08T08:23:36;99209.34;;;13.68;100.00
23446;BME280;11895;48.738;9.320;2023-04-08T08:26:06;99215.91;;;13.97;100.00
23446;BME280;11895;48.738;9.320;2023-04-08T08:28:38;99226.84;;;13.96;100.00
23446;BME280;11895;48.738;9.320;2023-04-08T08:31:05;99222.78;;;13.87;100.00
23446;BME280;11895;48.738;9.320;2023-04-08T08:33:33;99224.94;;;13.63;100.00
23446;BME280;11895;48.738;9.320;2023-04-08T08:36:01;99221.84;;;13.88;100.00
23446;BME280;11895;48.738;9.320;2023-04-08T08:38:32;99221.38;;;13.80;100.00
23446;BME280;11895;48.738;9.320;2023-04-08T08:41:00;99224.63;;;13.86;100.00
23446;BME280;11895;48.738;9.320;2023-04-08T08:43:28;99219.47;;;14.31;100.00
23446;BME280;11895;48.738;9.320;2023-04-08T08:45:55;99223.59;;;14.55;100.00
23446;BME280;11895;48.738;9.320;2023-04-08T08:48:24;99224.09;;;14.78;100.00
23446;BME280;11895;48.738;9.320;2023-04-08T08:50:52;99220.34;;;14.64;100.00
23446;BME280;11895;48.738;9.320;2023-04-08T08:53:20;99221.31;;;14.63;100.00
23446;BME280;11895;48.738;9.320;2023-04-08T08:55:49;99220.41;;;14.47;100.00
23446;BME280;11895;48.738;9.320;2023-04-08T08:58:38;99227.44;;;14.83;100.00
23446;BME280;11895;48.738;9.320;2023-04-08T09:06:46;99242.66;;;15.01;100.00
23446;BME280;11895;48.738;9.320;2023-04-08T09:09:50;99232.25;;;14.78;100.00
23446;BME280;11895;48.738;9.320;2023-04-08T09:12:18;99245.28;;;15.19;100.00
23446;BME280;11895;48.738;9.320;2023-04-08T09:14:45;99233.91;;;14.96;100.00
23446;BME280;11895;48.738;9.320;2023-04-08T09:17:13;99235.31;;;14.87;100.00
23446;BME280;11895;48.738;9.320;2023-04-08T09:20:09;99243.75;;;15.29;100.00
23446;BME280;11895;48.738;9.320;2023-04-08T09:22:59;99237.03;;;15.50;99.73
23446;BME280;11895;48.738;9.320;2023-04-08T09:25:32;99237.38;;;16.04;96.64
23446;BME280;11895;48.738;9.320;2023-04-08T09:28:00;99232.75;;;16.35;88.34
23446;BME280;11895;48.738;9.320;2023-04-08T09:30:31;99235.66;;;16.46;81.47
23446;BME280;11895;48.738;9.320;2023-04-08T09:32:58;99232.25;;;16.28;82.48
23446;BME280;11895;48.738;9.320;2023-04-08T09:35:27;99230.69;;;16.53;79.13
23446;BME280;11895;48.738;9.320;2023-04-08T09:37:55;99229.81;;;16.52;80.84
23446;BME280;11895;48.738;9.320;2023-04-08T09:40:27;99227.44;;;15.75;88.06
23446;BME280;11895;48.738;9.320;2023-04-08T09:43:04;99223.44;;;16.10;83.28
23446;BME280;11895;48.738;9.320;2023-04-08T09:45:35;99230.88;;;16.64;76.09
23446;BME280;11895;48.738;9.320;2023-04-08T09:48:21;99220.66;;;16.82;68.98
23446;BME280;11895;48.738;9.320;2023-04-08T09:50:53;99229.63;;;16.41;66.52
23446;BME280;11895;48.738;9.320;2023-04-08T09:53:35;99224.09;;;16.14;66.82
23446;BME280;11895;48.738;9.320;2023-04-08T09:56:09;99231.97;;;16.18;62.20
23446;BME280;11895;48.738;9.320;2023-04-08T10:01:39;99235.25;;;16.81;57.73
23446;BME280;11895;48.738;9.320;2023-04-08T10:04:22;99234.56;;;17.18;54.21
23446;BME280;11895;48.738;9.320;2023-04-08T10:07:05;99231.38;;;17.39;54.42
23446;BME280;11895;48.738;9.320;2023-04-08T10:09:34;99233.69;;;17.97;55.29
23446;BME280;11895;48.738;9.320;2023-04-08T10:12:03;99228.72;;;18.04;54.44
23446;BME280;11895;48.738;9.320;2023-04-08T10:14:31;99228.69;;;18.17;51.82
23446;BME280;11895;48.738;9.320;2023-04-08T10:17:24;99228.91;;;18.27;50.08
23446;BME280;11895;48.738;9.320;2023-04-08T10:19:57;99235.22;;;18.40;47.28
23446;BME280;11895;48.738;9.320;2023-04-08T10:27:44;99225.88;;;18.18;47.45
23446;BME280;11895;48.738;9.320;2023-04-08T10:32:59;99230.88;;;17.99;46.76
23446;BME280;11895;48.738;9.320;2023-04-08T10:35:39;99237.94;;;17.76;46.21
23446;BME280;11895;48.738;9.320;2023-04-08T10:38:08;99231.19;;;16.59;49.93
23446;BME280;11895;48.738;9.320;2023-04-08T10:40:38;99228.81;;;16.67;52.08
23446;BME280;11895;48.738;9.320;2023-04-08T10:43:10;99237.63;;;16.44;55.15
23446;BME280;11895;48.738;9.320;2023-04-08T10:45:39;99238.25;;;16.05;55.25
23446;BME280;11895;48.738;9.320;2023-04-08T10:48:33;99244.91;;;15.85;56.75
23446;BME280;11895;48.738;9.320;2023-04-08T10:51:02;99241.50;;;15.51;58.33
23446;BME280;11895;48.738;9.320;2023-04-08T10:53:35;99240.81;;;15.63;60.37
23446;BME280;11895;48.738;9.320;2023-04-08T10:56:12;99238.84;;;15.65;58.08
23446;BME280;11895;48.738;9.320;2023-04-08T10:58:53;99236.56;;;15.74;62.28
23446;BME280;11895;48.738;9.320;2023-04-08T11:01:22;99242.19;;;15.25;60.06
23446;BME280;11895;48.738;9.320;2023-04-08T11:03:52;99243.88;;;15.57;60.13
23446;BME280;11895;48.738;9.320;2023-04-08T11:06:20;99245.69;;;15.57;60.34
23446;BME280;11895;48.738;9.320;2023-04-08T11:08:48;99239.50;;;15.85;58.85
23446;BME280;11895;48.738;9.320;2023-04-08T11:11:18;99239.41;;;15.86;61.43
23446;BME280;11895;48.738;9.320;2023-04-08T11:13:45;99240.19;;;15.88;63.04
23446;BME280;11895;48.738;9.320;2023-04-08T11:16:23;99239.38;;;15.26;64.43
23446;BME280;11895;48.738;9.320;2023-04-08T11:18:52;99239.06;;;15.47;66.45
23446;BME280;11895;48.738;9.320;2023-04-08T11:21:23;99233.63;;;15.47;63.50
23446;BME280;11895;48.738;9.320;2023-04-08T11:23:51;99233.41;;;15.81;65.50
23446;BME280;11895;48.738;9.320;2023-04-08T11:26:20;99235.03;;;15.54;60.05
23446;BME280;11895;48.738;9.320;2023-04-08T11:28:48;99235.53;;;15.76;65.45
23446;BME280;11895;48.738;9.320;2023-04-08T11:31:19;99234.06;;;15.99;59.95
23446;BME280;11895;48.738;9.320;2023-04-08T11:33:53;99231.06;;;15.89;53.17
23446;BME280;11895;48.738;9.320;2023-04-08T11:36:22;99231.66;;;16.09;50.02
23446;BME280;11895;48.738;9.320;2023-04-08T11:38:53;99240.50;;;15.98;48.97
23446;BME280;11895;48.738;9.320;2023-04-08T11:41:21;99238.66;;;16.13;46.31
23446;BME280;11895;48.738;9.320;2023-04-08T11:43:54;99234.47;;;15.93;46.40
23446;BME280;11895;48.738;9.320;2023-04-08T11:46:22;99236.63;;;16.02;47.92
23446;BME280;11895;48.738;9.320;2023-04-08T11:49:17;99239.25;;;16.32;48.77
23446;BME280;11895;48.738;9.320;2023-04-08T11:51:58;99237.03;;;16.25;47.88
23446;BME280;11895;48.738;9.320;2023-04-08T11:54:28;99223.22;;;16.28;45.85
23446;BME280;11895;48.738;9.320;2023-04-08T11:56:56;99236.63;;;16.31;45.53
23446;BME280;11895;48.738;9.320;2023-04-08T11:59:25;99232.47;;;16.11;49.09
23446;BME280;11895;48.738;9.320;2023-04-08T12:01:55;99227.50;;;16.32;51.15
23446;BME280;11895;48.738;9.320;2023-04-08T12:04:23;99238.19;;;16.35;52.39
23446;BME280;11895;48.738;9.320;2023-04-08T12:06:50;99227.88;;;15.37;52.24
23446;BME280;11895;48.738;9.320;2023-04-08T12:09:42;99233.19;;;15.84;52.90
23446;BME280;11895;48.738;9.320;2023-04-08T12:12:09;99234.88;;;16.01;51.92
23446;BME280;11895;48.738;9.320;2023-04-08T12:14:36;99245.94;;;15.98;49.42
23446;BME280;11895;48.738;9.320;2023-04-08T12:17:03;99237.78;;;16.12;51.10
23446;BME280;11895;48.738;9.320;2023-04-08T12:19:31;99238.19;;;16.35;49.06
23446;BME280;11895;48.738;9.320;2023-04-08T12:22:01;99242.06;;;16.31;49.37
23446;BME280;11895;48.738;9.320;2023-04-08T12:24:29;99248.28;;;16.47;48.63
23446;BME280;11895;48.738;9.320;2023-04-08T12:26:56;99251.00;;;16.33;49.94
23446;BME280;11895;48.738;9.320;2023-04-08T12:29:23;99241.84;;;16.62;49.81
23446;BME280;11895;48.738;9.320;2023-04-08T12:31:55;99248.28;;;16.47;47.18
23446;BME280;11895;48.738;9.320;2023-04-08T12:34:27;99246.13;;;16.81;48.65
23446;BME280;11895;48.738;9.320;2023-04-08T12:36:54;99249.84;;;16.80;46.91
23446;BME280;11895;48.738;9.320;2023-04-08T12:39:22;99245.34;;;16.93;46.21
23446;BME280;11895;48.738;9.320;2023-04-08T12:41:49;99245.69;;;17.01;45.90
23446;BME280;11895;48.738;9.320;2023-04-08T12:44:16;99242.31;;;17.25;46.97
23446;BME280;11895;48.738;9.320;2023-04-08T12:46:45;99248.81;;;17.49;46.17
23446;BME280;11895;48.738;9.320;2023-04-08T12:49:12;99242.06;;;17.42;45.00
23446;BME280;11895;48.738;9.320;2023-04-08T12:51:39;99247.00;;;17.89;47.84
23446;BME280;11895;48.738;9.320;2023-04-08T12:54:06;99247.78;;;17.64;46.95
23446;BME280;11895;48.738;9.320;2023-04-08T12:56:34;99238.66;;;17.11;47.65
23446;BME280;11895;48.738;9.320;2023-04-08T12:59:01;99243.13;;;17.39;47.38
23446;BME280;11895;48.738;9.320;2023-04-08T13:01:29;99249.28;;;17.83;52.56
23446;BME280;11895;48.738;9.320;2023-04-08T13:03:57;99248.84;;;18.02;48.05
23446;BME280;11895;48.738;9.320;2023-04-08T13:06:25;99241.25;;;17.94;48.13
23446;BME280;11895;48.738;9.320;2023-04-08T13:08:53;99237.63;;;18.06;46.30
23446;BME280;11895;48.738;9.320;2023-04-08T13:11:20;99243.84;;;18.21;49.14
23446;BME280;11895;48.738;9.320;2023-04-08T13:13:47;99242.44;;;17.90;44.59
23446;BME280;11895;48.738;9.320;2023-04-08T13:16:15;99244.13;;;17.78;46.83
23446;BME280;11895;48.738;9.320;2023-04-08T13:18:42;99241.25;;;17.94;48.13
23446;BME280;11895;48.738;9.320;2023-04-08T13:21:10;99240.44;;;17.79;46.96
23446;BME280;11895;48.738;9.320;2023-04-08T13:23:37;99240.81;;;17.60;48.30
23446;BME280;11895;48.738;9.320;2023-04-08T13:26:04;99248.19;;;17.58;46.89
23446;BME280;11895;48.738;9.320;2023-04-08T13:28:32;99246.47;;;17.57;49.43
23446;BME280;11895;48.738;9.320;2023-04-08T13:31:09;99243.31;;;17.24;47.31